• Join FlightAware (Why Join?)
  • Login
  • US Flag 
10:36PM EDT


 

Airport Tracker/Info


-or-


 

Live Flight TrackerFlight Track Log ✈ WEW1540 ✈ 3 de May de 2013 ✈ CYQR - CYYN

Flight Track Log - Related Links

Times and Time Zones

All times are in EDT time to prevent confusion due to time zone crossing. See the WEW1540 flight status page for this flight to view local times or setup timezone preferences in your user account.

Time Position Orientation Groundspeed Altitude Reporting Facility
EDT Latitude Longitude Course Direction KTS MPH feet Rate Location/Type
08:08AM 50.4000 -104.6667 180° South 60 69 2,000  Level Winnipeg Center
08:09AM 50.3833 -104.6667 180° South 100 115 3,300 1,080 Climbing Winnipeg Center
08:10AM 50.3667 -104.6833 213° Southwest 90 104 4,200 900 Climbing Winnipeg Center
08:11AM 50.3667 -104.7167 270° West 110 127 5,100 900 Climbing Winnipeg Center
08:12AM 50.3667 -104.7667 270° West 120 138 6,000 420 Climbing Winnipeg Center
08:13AM 50.3667 -104.8500 270° West 150 173 6,000  Level Winnipeg Center
08:14AM 50.3500 -104.9167 249° West 180 207 6,000  Level Winnipeg Center
08:15AM 50.3667 -105.0000 287° West 180 207 6,000  Level Winnipeg Center
08:16AM 50.3667 -105.0833 270° West 180 207 6,000  Level Winnipeg Center
08:17AM 50.3667 -105.1667 270° West 180 207 6,000  Level Winnipeg Center
08:18AM 50.3667 -105.2333 270° West 180 207 6,000  Level Winnipeg Center
08:19AM 50.3667 -105.3167 270° West 180 207 6,000  Level Winnipeg Center
08:20AM 50.3500 -105.4000 253° West 180 207 6,000  Level Winnipeg Center
08:21AM 50.3500 -105.4833 270° West 180 207 6,000  Level Winnipeg Center
08:22AM 50.3500 -105.5500 270° West 180 207 6,000  Level Winnipeg Center
08:23AM 50.3333 -105.6000 242° Southwest 180 207 6,000  Level Winnipeg Center
08:24AM 50.3500 -105.7167 283° West 180 207 6,000  Level Winnipeg Center
08:25AM 50.3500 -105.7833 270° West 180 207 6,000  Level Winnipeg Center
08:26AM 50.3333 -105.8667 253° West 180 207 6,000  Level Winnipeg Center
08:27AM 50.3333 -105.9500 270° West 180 207 6,000  Level Winnipeg Center
08:28AM 50.3333 -106.0167 270° West 180 207 6,000 -60 Level Winnipeg Center
08:29AM 50.3333 -106.1000 270° West 180 207 5,900 -60 Descending Winnipeg Center
08:30AM 50.3333 -106.1500 270° West 180 207 5,900  Level Winnipeg Center
08:31AM 50.3500 -106.2333 287° West 180 207 5,900  Level Winnipeg Center
08:32AM 50.3333 -106.3167 253° West 180 207 5,900  Level Winnipeg Center
08:33AM 50.3333 -106.4000 270° West 180 207 5,900  Level Winnipeg Center
08:34AM 50.3167 -106.4667 249° West 180 207 5,900  Level Winnipeg Center
08:35AM 50.3167 -106.5500 270° West 180 207 5,900  Level Winnipeg Center
08:36AM 50.3167 -106.6333 270° West 180 207 5,900  Level Winnipeg Center
08:37AM 50.3167 -106.7000 270° West 180 207 5,900  Level Winnipeg Center
08:38AM 50.3167 -106.7833 270° West 180 207 5,900  Level Winnipeg Center
08:39AM 50.3000 -106.8667 253° West 180 207 5,900  Level Winnipeg Center
08:40AM 50.3167 -106.9500 287° West 180 207 5,900  Level Winnipeg Center
08:41AM 50.3167 -107.0167 270° West 180 207 5,900 -60 Level Winnipeg Center
08:42AM 50.3000 -107.1000 253° West 180 207 5,800 -180 Descending Winnipeg Center
08:43AM 50.3000 -107.1833 270° West 180 207 5,600 -180 Descending Winnipeg Center
08:44AM 50.2833 -107.2500 249° West 180 207 5,500 -120 Descending Winnipeg Center
08:46AM 50.3000 -107.3604 270° West  Level FlightAware Approximate
08:53AM 50.2833 -107.6833 265° West  Level FlightAware Approximate
08:54AM 50.2919 -107.6906 265° West  Level Estimated
08:55AM 50.2919 -107.6906 265° West  Level Estimated
08:56AM 50.2919 -107.6906 265° West  Level Estimated
08:57AM 50.2919 -107.6906 265° West  Level Estimated
08:58AM 50.2919 -107.6906 265° West  Level Estimated